Terminal Aerodrome Forecast
Issued by NWS

Home | Current Version | Previous Version | Text Only | Print | Product List | Glossary On
Versions: 1 2 3 4 5 6 7 8 9 10 11 12 13 14 15 16 17 18 19 20 21 22 23 24 25 26 27 28
000
FTUS44 KLIX 242336
TAFHDC
TAF
KHDC 242336Z 2500/2524 17014KT P6SM SCT025
      TEMPO 2502/2505 VRB20G35KT 2SM TSRA BKN020CB
     FM250500 14006KT P6SM SCT020 BKN090
     FM251000 15004KT P6SM BKN015
     FM251400 14006KT P6SM VCSH BKN025
     FM251700 14009KT P6SM VCTS BKN035CB=

USA.gov is the U.S. government's official web portal to all federal, state and local government web resources and services.